Previous Day
Next Day
Current Day
SHEF ID: FVSO2 FAIRVIEW
STATION TYPE: Mesonet
PRECIP AIR-TEMP WIND-DIRWIND-SPEED REL-HUMID SOLAR-RAD
in F deg mph % W/m2
Raw-Meson Raw-Meson Raw-Meson Raw-Meson Raw-Meson Raw-Meson
(US/Central)
05/28 00:00 0.00 63.91 186.25 3.80 94.25 0.00
05/28 01:00 0.00 62.87 346.00 4.70 90.25 0.00
05/28 02:00 0.00 59.95 339.00 4.92 90.00 0.00
05/28 03:00 0.00 57.47 315.75 4.47 93.00 0.00
05/28 04:00 0.00 55.81 321.75 3.74 94.25 0.00
05/28 05:00 0.00 55.31 84.75 5.76 93.75 0.00
05/28 06:00 0.00 54.23 179.75 5.26 93.50 0.00
05/28 07:00 0.00 53.69 344.00 7.10 92.25 48.25
05/28 08:00 0.00 55.27 177.00 7.16 87.25 178.50
05/28 09:00 0.00 56.75 91.25 10.51 81.25 311.75
05/28 10:00 0.00 59.09 17.00 13.14 73.25 570.50
05/28 11:00 0.00 60.58 28.25 11.13 69.50 451.75
05/28 12:00 0.00 62.51 27.50 8.33 65.00 543.25
05/28 13:00 0.00 66.34 121.25 5.98 60.25 924.50
05/28 14:00 0.00 66.69 103.75 8.45 61.50 741.50
05/28 15:00 0.00 67.14 39.00 6.65 60.25 551.50
05/28 16:00 0.00 69.44 52.00 7.83 56.25 822.75
05/28 17:00 0.00 71.28 64.75 5.48 54.50 748.75
05/28 18:00 0.00 72.14 92.75 6.43 53.75 563.25
05/28 19:00 0.00 71.47 94.00 6.26 54.25 362.25
05/28 20:00 0.00 69.89 94.50 4.87 58.00 162.00
05/28 21:00 0.00 65.53 89.75 3.41 76.50 17.25
05/28 22:00 0.00 62.51 78.00 4.97 83.75 0.00
05/28 23:00 ---- 61.34 71.50 5.98 81.25 0.00